sensor_id;sensor_type;location;lat;lon;timestamp;P1;P2;P0
77481;PMS5003;66582;43.004;-75.010;2023-07-29T00:02:22;28;26;
77481;PMS5003;66582;43.004;-75.010;2023-07-29T00:04:47;26;24;
77481;PMS5003;66582;43.004;-75.010;2023-07-29T00:07:12;28;26;
77481;PMS5003;66582;43.004;-75.010;2023-07-29T00:09:38;25;24;
77481;PMS5003;66582;43.004;-75.010;2023-07-29T00:12:03;23;21;
77481;PMS5003;66582;43.004;-75.010;2023-07-29T00:14:29;28;26;
77481;PMS5003;66582;43.004;-75.010;2023-07-29T00:16:54;27;26;
77481;PMS5003;66582;43.004;-75.010;2023-07-29T00:19:20;26;25;
77481;PMS5003;66582;43.004;-75.010;2023-07-29T00:21:45;24;23;
77481;PMS5003;66582;43.004;-75.010;2023-07-29T00:24:11;27;26;
77481;PMS5003;66582;43.004;-75.010;2023-07-29T00:26:36;24;23;
77481;PMS5003;66582;43.004;-75.010;2023-07-29T00:29:02;26;24;
77481;PMS5003;66582;43.004;-75.010;2023-07-29T00:31:27;26;24;
77481;PMS5003;66582;43.004;-75.010;2023-07-29T00:33:53;28;27;
77481;PMS5003;66582;43.004;-75.010;2023-07-29T00:36:18;28;25;
77481;PMS5003;66582;43.004;-75.010;2023-07-29T00:38:45;28;28;
77481;PMS5003;66582;43.004;-75.010;2023-07-29T00:41:09;27;26;
77481;PMS5003;66582;43.004;-75.010;2023-07-29T00:43:35;27;26;
77481;PMS5003;66582;43.004;-75.010;2023-07-29T00:46:00;24;23;
77481;PMS5003;66582;43.004;-75.010;2023-07-29T00:48:26;32;30;
77481;PMS5003;66582;43.004;-75.010;2023-07-29T00:50:51;25;24;
77481;PMS5003;66582;43.004;-75.010;2023-07-29T00:53:17;26;25;
77481;PMS5003;66582;43.004;-75.010;2023-07-29T00:55:43;23;23;
77481;PMS5003;66582;43.004;-75.010;2023-07-29T00:58:09;27;26;
77481;PMS5003;66582;43.004;-75.010;2023-07-29T01:00:34;29;28;
77481;PMS5003;66582;43.004;-75.010;2023-07-29T01:02:59;25;23;
77481;PMS5003;66582;43.004;-75.010;2023-07-29T01:05:25;30;27;
77481;PMS5003;66582;43.004;-75.010;2023-07-29T01:07:51;27;24;
77481;PMS5003;66582;43.004;-75.010;2023-07-29T01:10:19;25;25;
77481;PMS5003;66582;43.004;-75.010;2023-07-29T01:12:42;28;27;
77481;PMS5003;66582;43.004;-75.010;2023-07-29T01:15:08;26;25;
77481;PMS5003;66582;43.004;-75.010;2023-07-29T01:17:32;28;25;
77481;PMS5003;66582;43.004;-75.010;2023-07-29T01:20:00;26;25;
77481;PMS5003;66582;43.004;-75.010;2023-07-29T01:22:22;26;26;
77481;PMS5003;66582;43.004;-75.010;2023-07-29T01:24:47;27;25;
77481;PMS5003;66582;43.004;-75.010;2023-07-29T01:27:13;28;26;
77481;PMS5003;66582;43.004;-75.010;2023-07-29T01:29:39;26;24;
77481;PMS5003;66582;43.004;-75.010;2023-07-29T01:32:06;27;25;
77481;PMS5003;66582;43.004;-75.010;2023-07-29T01:34:29;26;25;
77481;PMS5003;66582;43.004;-75.010;2023-07-29T01:36:55;26;24;
77481;PMS5003;66582;43.004;-75.010;2023-07-29T01:39:21;31;29;
77481;PMS5003;66582;43.004;-75.010;2023-07-29T01:41:45;27;25;
77481;PMS5003;66582;43.004;-75.010;2023-07-29T01:44:11;27;25;
77481;PMS5003;66582;43.004;-75.010;2023-07-29T01:46:37;28;27;
77481;PMS5003;66582;43.004;-75.010;2023-07-29T01:49:02;26;25;
77481;PMS5003;66582;43.004;-75.010;2023-07-29T01:51:27;22;21;
77481;PMS5003;66582;43.004;-75.010;2023-07-29T01:53:53;24;23;
77481;PMS5003;66582;43.004;-75.010;2023-07-29T01:56:19;23;23;
77481;PMS5003;66582;43.004;-75.010;2023-07-29T01:58:44;26;24;
77481;PMS5003;66582;43.004;-75.010;2023-07-29T02:01:09;27;25;
77481;PMS5003;66582;43.004;-75.010;2023-07-29T02:03:35;25;24;
77481;PMS5003;66582;43.004;-75.010;2023-07-29T02:06:00;32;27;
77481;PMS5003;66582;43.004;-75.010;2023-07-29T02:08:26;25;25;
77481;PMS5003;66582;43.004;-75.010;2023-07-29T02:10:51;29;26;
77481;PMS5003;66582;43.004;-75.010;2023-07-29T02:13:16;25;25;
77481;PMS5003;66582;43.004;-75.010;2023-07-29T02:15:42;25;25;
77481;PMS5003;66582;43.004;-75.010;2023-07-29T02:18:07;31;29;
77481;PMS5003;66582;43.004;-75.010;2023-07-29T02:20:33;29;26;
77481;PMS5003;66582;43.004;-75.010;2023-07-29T02:22:58;25;25;
77481;PMS5003;66582;43.004;-75.010;2023-07-29T02:25:24;27;25;
77481;PMS5003;66582;43.004;-75.010;2023-07-29T02:27:49;27;25;
77481;PMS5003;66582;43.004;-75.010;2023-07-29T02:30:15;27;27;
77481;PMS5003;66582;43.004;-75.010;2023-07-29T02:32:40;29;28;
77481;PMS5003;66582;43.004;-75.010;2023-07-29T02:35:05;34;32;
77481;PMS5003;66582;43.004;-75.010;2023-07-29T02:37:31;27;26;
77481;PMS5003;66582;43.004;-75.010;2023-07-29T02:39:57;32;32;
77481;PMS5003;66582;43.004;-75.010;2023-07-29T02:42:21;31;27;
77481;PMS5003;66582;43.004;-75.010;2023-07-29T02:44:47;26;25;
77481;PMS5003;66582;43.004;-75.010;2023-07-29T02:47:12;28;27;
77481;PMS5003;66582;43.004;-75.010;2023-07-29T02:49:38;28;26;
77481;PMS5003;66582;43.004;-75.010;2023-07-29T02:52:04;26;25;
77481;PMS5003;66582;43.004;-75.010;2023-07-29T02:54:29;31;29;
77481;PMS5003;66582;43.004;-75.010;2023-07-29T02:56:54;24;23;
77481;PMS5003;66582;43.004;-75.010;2023-07-29T02:59:20;27;25;
77481;PMS5003;66582;43.004;-75.010;2023-07-29T03:01:45;34;33;
77481;PMS5003;66582;43.004;-75.010;2023-07-29T03:04:10;28;26;
77481;PMS5003;66582;43.004;-75.010;2023-07-29T03:06:37;30;29;
77481;PMS5003;66582;43.004;-75.010;2023-07-29T03:09:01;27;25;
77481;PMS5003;66582;43.004;-75.010;2023-07-29T03:11:27;24;24;
77481;PMS5003;66582;43.004;-75.010;2023-07-29T03:13:52;29;28;
77481;PMS5003;66582;43.004;-75.010;2023-07-29T03:16:18;30;28;
77481;PMS5003;66582;43.004;-75.010;2023-07-29T03:18:44;24;23;
77481;PMS5003;66582;43.004;-75.010;2023-07-29T03:21:10;28;27;
77481;PMS5003;66582;43.004;-75.010;2023-07-29T03:23:35;28;26;
77481;PMS5003;66582;43.004;-75.010;2023-07-29T03:26:01;32;28;
77481;PMS5003;66582;43.004;-75.010;2023-07-29T03:28:26;30;29;
77481;PMS5003;66582;43.004;-75.010;2023-07-29T03:30:52;33;31;
77481;PMS5003;66582;43.004;-75.010;2023-07-29T03:33:17;26;24;
77481;PMS5003;66582;43.004;-75.010;2023-07-29T03:35:42;32;27;
77481;PMS5003;66582;43.004;-75.010;2023-07-29T03:38:10;28;27;
77481;PMS5003;66582;43.004;-75.010;2023-07-29T03:40:33;27;27;
77481;PMS5003;66582;43.004;-75.010;2023-07-29T03:42:59;32;31;
77481;PMS5003;66582;43.004;-75.010;2023-07-29T03:45:24;24;23;
77481;PMS5003;66582;43.004;-75.010;2023-07-29T03:47:50;24;23;
77481;PMS5003;66582;43.004;-75.010;2023-07-29T03:50:16;29;27;
77481;PMS5003;66582;43.004;-75.010;2023-07-29T03:52:40;28;27;
77481;PMS5003;66582;43.004;-75.010;2023-07-29T03:55:07;28;28;
77481;PMS5003;66582;43.004;-75.010;2023-07-29T03:57:32;27;26;
77481;PMS5003;66582;43.004;-75.010;2023-07-29T03:59:58;28;27;
77481;PMS5003;66582;43.004;-75.010;2023-07-29T04:02:23;26;25;
77481;PMS5003;66582;43.004;-75.010;2023-07-29T04:04:49;23;22;
77481;PMS5003;66582;43.004;-75.010;2023-07-29T04:07:14;28;28;
77481;PMS5003;66582;43.004;-75.010;2023-07-29T04:09:39;32;30;
77481;PMS5003;66582;43.004;-75.010;2023-07-29T04:12:05;24;24;
77481;PMS5003;66582;43.004;-75.010;2023-07-29T04:14:31;23;23;
77481;PMS5003;66582;43.004;-75.010;2023-07-29T04:16:56;32;30;
77481;PMS5003;66582;43.004;-75.010;2023-07-29T04:19:21;27;25;
77481;PMS5003;66582;43.004;-75.010;2023-07-29T04:21:47;27;26;
77481;PMS5003;66582;43.004;-75.010;2023-07-29T04:24:12;27;26;
77481;PMS5003;66582;43.004;-75.010;2023-07-29T04:26:37;29;27;
77481;PMS5003;66582;43.004;-75.010;2023-07-29T04:29:03;27;26;
77481;PMS5003;66582;43.004;-75.010;2023-07-29T04:31:28;25;24;
77481;PMS5003;66582;43.004;-75.010;2023-07-29T04:33:54;25;25;
77481;PMS5003;66582;43.004;-75.010;2023-07-29T04:36:20;26;24;
77481;PMS5003;66582;43.004;-75.010;2023-07-29T04:38:45;24;24;
77481;PMS5003;66582;43.004;-75.010;2023-07-29T04:41:11;28;28;
77481;PMS5003;66582;43.004;-75.010;2023-07-29T04:43:36;27;26;
77481;PMS5003;66582;43.004;-75.010;2023-07-29T04:46:03;25;24;
77481;PMS5003;66582;43.004;-75.010;2023-07-29T04:48:28;29;29;
77481;PMS5003;66582;43.004;-75.010;2023-07-29T04:50:53;29;28;
77481;PMS5003;66582;43.004;-75.010;2023-07-29T04:53:18;26;26;
77481;PMS5003;66582;43.004;-75.010;2023-07-29T04:55:44;26;25;
77481;PMS5003;66582;43.004;-75.010;2023-07-29T04:58:09;26;25;
77481;PMS5003;66582;43.004;-75.010;2023-07-29T05:00:36;28;26;
77481;PMS5003;66582;43.004;-75.010;2023-07-29T05:03:00;28;27;
77481;PMS5003;66582;43.004;-75.010;2023-07-29T05:05:25;27;27;
77481;PMS5003;66582;43.004;-75.010;2023-07-29T05:07:51;27;26;
77481;PMS5003;66582;43.004;-75.010;2023-07-29T05:10:16;30;30;
77481;PMS5003;66582;43.004;-75.010;2023-07-29T05:12:41;29;28;
77481;PMS5003;66582;43.004;-75.010;2023-07-29T05:15:07;28;26;
77481;PMS5003;66582;43.004;-75.010;2023-07-29T05:17:32;27;26;
77481;PMS5003;66582;43.004;-75.010;2023-07-29T05:19:58;31;30;
77481;PMS5003;66582;43.004;-75.010;2023-07-29T05:22:23;33;28;
77481;PMS5003;66582;43.004;-75.010;2023-07-29T05:24:49;31;31;
77481;PMS5003;66582;43.004;-75.010;2023-07-29T05:27:14;28;28;
77481;PMS5003;66582;43.004;-75.010;2023-07-29T05:29:39;35;34;
77481;PMS5003;66582;43.004;-75.010;2023-07-29T05:32:05;38;36;
77481;PMS5003;66582;43.004;-75.010;2023-07-29T05:34:31;40;38;
77481;PMS5003;66582;43.004;-75.010;2023-07-29T05:36:56;38;35;
77481;PMS5003;66582;43.004;-75.010;2023-07-29T05:39:22;30;29;
77481;PMS5003;66582;43.004;-75.010;2023-07-29T05:41:47;28;26;
77481;PMS5003;66582;43.004;-75.010;2023-07-29T05:44:13;36;36;
77481;PMS5003;66582;43.004;-75.010;2023-07-29T05:46:38;33;32;
77481;PMS5003;66582;43.004;-75.010;2023-07-29T05:49:04;32;32;
77481;PMS5003;66582;43.004;-75.010;2023-07-29T05:51:30;29;28;
77481;PMS5003;66582;43.004;-75.010;2023-07-29T05:53:55;33;31;
77481;PMS5003;66582;43.004;-75.010;2023-07-29T05:56:20;31;28;
77481;PMS5003;66582;43.004;-75.010;2023-07-29T05:58:46;33;30;
77481;PMS5003;66582;43.004;-75.010;2023-07-29T06:01:12;32;29;
77481;PMS5003;66582;43.004;-75.010;2023-07-29T06:03:37;27;26;
77481;PMS5003;66582;43.004;-75.010;2023-07-29T06:06:02;26;26;
77481;PMS5003;66582;43.004;-75.010;2023-07-29T06:08:28;24;24;
77481;PMS5003;66582;43.004;-75.010;2023-07-29T06:10:54;24;23;
77481;PMS5003;66582;43.004;-75.010;2023-07-29T06:13:19;23;23;
77481;PMS5003;66582;43.004;-75.010;2023-07-29T06:15:44;26;26;
77481;PMS5003;66582;43.004;-75.010;2023-07-29T06:18:09;23;21;
77481;PMS5003;66582;43.004;-75.010;2023-07-29T06:20:35;24;24;
77481;PMS5003;66582;43.004;-75.010;2023-07-29T06:23:01;25;22;
77481;PMS5003;66582;43.004;-75.010;2023-07-29T06:25:27;26;24;
77481;PMS5003;66582;43.004;-75.010;2023-07-29T06:27:52;24;23;
77481;PMS5003;66582;43.004;-75.010;2023-07-29T06:30:17;26;26;
77481;PMS5003;66582;43.004;-75.010;2023-07-29T06:32:43;27;27;
77481;PMS5003;66582;43.004;-75.010;2023-07-29T06:35:08;29;24;
77481;PMS5003;66582;43.004;-75.010;2023-07-29T06:37:34;27;27;
77481;PMS5003;66582;43.004;-75.010;2023-07-29T06:40:00;23;23;
77481;PMS5003;66582;43.004;-75.010;2023-07-29T06:42:25;30;25;
77481;PMS5003;66582;43.004;-75.010;2023-07-29T06:44:50;30;29;
77481;PMS5003;66582;43.004;-75.010;2023-07-29T06:47:16;26;25;
77481;PMS5003;66582;43.004;-75.010;2023-07-29T06:49:41;27;24;
77481;PMS5003;66582;43.004;-75.010;2023-07-29T06:52:07;26;23;
77481;PMS5003;66582;43.004;-75.010;2023-07-29T06:54:32;19;19;
77481;PMS5003;66582;43.004;-75.010;2023-07-29T06:56:58;22;21;
77481;PMS5003;66582;43.004;-75.010;2023-07-29T06:59:23;25;24;
77481;PMS5003;66582;43.004;-75.010;2023-07-29T07:01:49;27;25;
77481;PMS5003;66582;43.004;-75.010;2023-07-29T07:04:15;24;23;
77481;PMS5003;66582;43.004;-75.010;2023-07-29T07:06:40;24;24;
77481;PMS5003;66582;43.004;-75.010;2023-07-29T07:09:06;24;24;
77481;PMS5003;66582;43.004;-75.010;2023-07-29T07:11:32;27;27;
77481;PMS5003;66582;43.004;-75.010;2023-07-29T07:13:57;26;23;
77481;PMS5003;66582;43.004;-75.010;2023-07-29T07:16:23;26;25;
77481;PMS5003;66582;43.004;-75.010;2023-07-29T07:18:48;23;22;
77481;PMS5003;66582;43.004;-75.010;2023-07-29T07:21:13;23;21;
77481;PMS5003;66582;43.004;-75.010;2023-07-29T07:23:39;28;26;
77481;PMS5003;66582;43.004;-75.010;2023-07-29T07:26:04;29;27;
77481;PMS5003;66582;43.004;-75.010;2023-07-29T07:28:30;27;26;
77481;PMS5003;66582;43.004;-75.010;2023-07-29T07:30:55;24;22;
77481;PMS5003;66582;43.004;-75.010;2023-07-29T07:33:20;26;26;
77481;PMS5003;66582;43.004;-75.010;2023-07-29T07:35:45;26;26;
77481;PMS5003;66582;43.004;-75.010;2023-07-29T07:38:12;30;28;
77481;PMS5003;66582;43.004;-75.010;2023-07-29T07:40:37;31;29;
77481;PMS5003;66582;43.004;-75.010;2023-07-29T07:43:02;28;27;
77481;PMS5003;66582;43.004;-75.010;2023-07-29T07:45:28;26;25;
77481;PMS5003;66582;43.004;-75.010;2023-07-29T07:47:53;26;25;
77481;PMS5003;66582;43.004;-75.010;2023-07-29T07:50:19;25;24;
77481;PMS5003;66582;43.004;-75.010;2023-07-29T07:52:46;26;24;
77481;PMS5003;66582;43.004;-75.010;2023-07-29T07:55:10;23;22;
77481;PMS5003;66582;43.004;-75.010;2023-07-29T07:57:35;22;22;
77481;PMS5003;66582;43.004;-75.010;2023-07-29T08:00:01;29;29;
77481;PMS5003;66582;43.004;-75.010;2023-07-29T08:02:27;24;23;
77481;PMS5003;66582;43.004;-75.010;2023-07-29T08:04:52;20;19;
77481;PMS5003;66582;43.004;-75.010;2023-07-29T08:07:18;22;22;
77481;PMS5003;66582;43.004;-75.010;2023-07-29T08:09:43;24;23;
77481;PMS5003;66582;43.004;-75.010;2023-07-29T08:12:09;25;24;
77481;PMS5003;66582;43.004;-75.010;2023-07-29T08:14:35;22;21;
77481;PMS5003;66582;43.004;-75.010;2023-07-29T08:17:00;24;24;
77481;PMS5003;66582;43.004;-75.010;2023-07-29T08:19:26;22;22;
77481;PMS5003;66582;43.004;-75.010;2023-07-29T08:21:52;23;23;
77481;PMS5003;66582;43.004;-75.010;2023-07-29T08:24:17;24;22;
77481;PMS5003;66582;43.004;-75.010;2023-07-29T08:26:43;30;26;
77481;PMS5003;66582;43.004;-75.010;2023-07-29T08:29:09;28;27;
77481;PMS5003;66582;43.004;-75.010;2023-07-29T08:31:34;28;27;
77481;PMS5003;66582;43.004;-75.010;2023-07-29T08:33:59;24;24;
77481;PMS5003;66582;43.004;-75.010;2023-07-29T08:36:25;23;23;
77481;PMS5003;66582;43.004;-75.010;2023-07-29T08:38:50;27;27;
77481;PMS5003;66582;43.004;-75.010;2023-07-29T08:41:16;27;25;
77481;PMS5003;66582;43.004;-75.010;2023-07-29T08:43:43;25;25;
77481;PMS5003;66582;43.004;-75.010;2023-07-29T08:46:06;24;23;
77481;PMS5003;66582;43.004;-75.010;2023-07-29T08:48:33;23;23;
77481;PMS5003;66582;43.004;-75.010;2023-07-29T08:50:57;26;23;
77481;PMS5003;66582;43.004;-75.010;2023-07-29T08:53:22;22;22;
77481;PMS5003;66582;43.004;-75.010;2023-07-29T08:55:48;23;22;
77481;PMS5003;66582;43.004;-75.010;2023-07-29T08:58:13;20;20;
77481;PMS5003;66582;43.004;-75.010;2023-07-29T09:00:39;21;20;
77481;PMS5003;66582;43.004;-75.010;2023-07-29T09:03:04;24;22;
77481;PMS5003;66582;43.004;-75.010;2023-07-29T09:05:29;24;22;
77481;PMS5003;66582;43.004;-75.010;2023-07-29T09:07:55;23;22;
77481;PMS5003;66582;43.004;-75.010;2023-07-29T09:10:21;23;22;
77481;PMS5003;66582;43.004;-75.010;2023-07-29T09:12:45;25;24;
77481;PMS5003;66582;43.004;-75.010;2023-07-29T09:15:11;26;26;
77481;PMS5003;66582;43.004;-75.010;2023-07-29T09:17:36;26;25;
77481;PMS5003;66582;43.004;-75.010;2023-07-29T09:20:02;25;22;
77481;PMS5003;66582;43.004;-75.010;2023-07-29T09:22:28;26;22;
77481;PMS5003;66582;43.004;-75.010;2023-07-29T09:24:53;24;24;
77481;PMS5003;66582;43.004;-75.010;2023-07-29T09:27:24;22;21;
77481;PMS5003;66582;43.004;-75.010;2023-07-29T09:29:44;23;23;
77481;PMS5003;66582;43.004;-75.010;2023-07-29T09:32:18;21;21;
77481;PMS5003;66582;43.004;-75.010;2023-07-29T09:34:36;22;21;
77481;PMS5003;66582;43.004;-75.010;2023-07-29T09:37:00;24;23;
77481;PMS5003;66582;43.004;-75.010;2023-07-29T09:39:25;23;22;
77481;PMS5003;66582;43.004;-75.010;2023-07-29T09:41:50;27;24;
77481;PMS5003;66582;43.004;-75.010;2023-07-29T09:44:15;27;25;
77481;PMS5003;66582;43.004;-75.010;2023-07-29T09:46:41;22;21;
77481;PMS5003;66582;43.004;-75.010;2023-07-29T09:49:07;27;26;
77481;PMS5003;66582;43.004;-75.010;2023-07-29T09:51:32;26;24;
77481;PMS5003;66582;43.004;-75.010;2023-07-29T09:53:58;24;24;
77481;PMS5003;66582;43.004;-75.010;2023-07-29T09:56:24;25;23;
77481;PMS5003;66582;43.004;-75.010;2023-07-29T09:58:48;25;24;
77481;PMS5003;66582;43.004;-75.010;2023-07-29T10:01:14;25;22;
77481;PMS5003;66582;43.004;-75.010;2023-07-29T10:03:39;26;24;
77481;PMS5003;66582;43.004;-75.010;2023-07-29T10:06:05;24;23;
77481;PMS5003;66582;43.004;-75.010;2023-07-29T10:08:30;26;25;
77481;PMS5003;66582;43.004;-75.010;2023-07-29T10:10:57;23;22;
77481;PMS5003;66582;43.004;-75.010;2023-07-29T10:13:22;26;25;
77481;PMS5003;66582;43.004;-75.010;2023-07-29T10:15:47;25;23;
77481;PMS5003;66582;43.004;-75.010;2023-07-29T10:18:12;22;22;
77481;PMS5003;66582;43.004;-75.010;2023-07-29T10:20:38;22;21;
77481;PMS5003;66582;43.004;-75.010;2023-07-29T10:23:04;20;20;
77481;PMS5003;66582;43.004;-75.010;2023-07-29T10:25:31;22;20;
77481;PMS5003;66582;43.004;-75.010;2023-07-29T10:27:55;25;23;
77481;PMS5003;66582;43.004;-75.010;2023-07-29T10:30:20;22;21;
77481;PMS5003;66582;43.004;-75.010;2023-07-29T10:32:46;22;22;
77481;PMS5003;66582;43.004;-75.010;2023-07-29T10:35:12;22;21;
77481;PMS5003;66582;43.004;-75.010;2023-07-29T10:37:38;24;24;
77481;PMS5003;66582;43.004;-75.010;2023-07-29T10:40:05;27;26;
77481;PMS5003;66582;43.004;-75.010;2023-07-29T10:42:28;29;27;
77481;PMS5003;66582;43.004;-75.010;2023-07-29T10:44:54;24;23;
77481;PMS5003;66582;43.004;-75.010;2023-07-29T10:47:21;23;20;
77481;PMS5003;66582;43.004;-75.010;2023-07-29T10:49:46;21;21;
77481;PMS5003;66582;43.004;-75.010;2023-07-29T10:52:12;25;23;
77481;PMS5003;66582;43.004;-75.010;2023-07-29T10:54:41;22;22;
77481;PMS5003;66582;43.004;-75.010;2023-07-29T10:57:02;25;25;
77481;PMS5003;66582;43.004;-75.010;2023-07-29T10:59:32;23;23;
77481;PMS5003;66582;43.004;-75.010;2023-07-29T11:01:58;28;26;
77481;PMS5003;66582;43.004;-75.010;2023-07-29T11:04:22;24;23;
77481;PMS5003;66582;43.004;-75.010;2023-07-29T11:11:35;27;25;
77481;PMS5003;66582;43.004;-75.010;2023-07-29T11:14:00;27;26;
77481;PMS5003;66582;43.004;-75.010;2023-07-29T11:16:26;25;24;
77481;PMS5003;66582;43.004;-75.010;2023-07-29T11:18:51;23;22;
77481;PMS5003;66582;43.004;-75.010;2023-07-29T11:21:17;24;24;
77481;PMS5003;66582;43.004;-75.010;2023-07-29T11:23:42;22;22;
77481;PMS5003;66582;43.004;-75.010;2023-07-29T11:26:07;20;20;
77481;PMS5003;66582;43.004;-75.010;2023-07-29T11:28:38;21;20;
77481;PMS5003;66582;43.004;-75.010;2023-07-29T11:30:58;25;23;
77481;PMS5003;66582;43.004;-75.010;2023-07-29T11:33:24;25;23;
77481;PMS5003;66582;43.004;-75.010;2023-07-29T11:35:49;23;22;
77481;PMS5003;66582;43.004;-75.010;2023-07-29T11:38:16;26;26;
77481;PMS5003;66582;43.004;-75.010;2023-07-29T11:40:40;25;24;
77481;PMS5003;66582;43.004;-75.010;2023-07-29T11:43:06;21;21;
77481;PMS5003;66582;43.004;-75.010;2023-07-29T11:45:31;27;25;
77481;PMS5003;66582;43.004;-75.010;2023-07-29T11:47:57;25;22;
77481;PMS5003;66582;43.004;-75.010;2023-07-29T11:50:23;25;24;
77481;PMS5003;66582;43.004;-75.010;2023-07-29T11:52:48;30;29;
77481;PMS5003;66582;43.004;-75.010;2023-07-29T11:55:15;27;26;
77481;PMS5003;66582;43.004;-75.010;2023-07-29T11:57:40;31;29;
77481;PMS5003;66582;43.004;-75.010;2023-07-29T12:00:06;31;28;
77481;PMS5003;66582;43.004;-75.010;2023-07-29T12:02:31;32;29;
77481;PMS5003;66582;43.004;-75.010;2023-07-29T12:04:55;27;27;
77481;PMS5003;66582;43.004;-75.010;2023-07-29T12:07:21;28;28;
77481;PMS5003;66582;43.004;-75.010;2023-07-29T12:09:46;36;30;
77481;PMS5003;66582;43.004;-75.010;2023-07-29T12:12:12;30;30;
77481;PMS5003;66582;43.004;-75.010;2023-07-29T12:14:38;32;29;
77481;PMS5003;66582;43.004;-75.010;2023-07-29T12:17:05;29;28;
77481;PMS5003;66582;43.004;-75.010;2023-07-29T12:19:32;26;26;
77481;PMS5003;66582;43.004;-75.010;2023-07-29T12:21:54;28;26;
77481;PMS5003;66582;43.004;-75.010;2023-07-29T12:24:19;29;27;
77481;PMS5003;66582;43.004;-75.010;2023-07-29T12:26:46;33;31;
77481;PMS5003;66582;43.004;-75.010;2023-07-29T12:29:11;36;33;
77481;PMS5003;66582;43.004;-75.010;2023-07-29T12:31:37;37;36;
77481;PMS5003;66582;43.004;-75.010;2023-07-29T12:34:01;33;33;
77481;PMS5003;66582;43.004;-75.010;2023-07-29T12:36:27;33;32;
77481;PMS5003;66582;43.004;-75.010;2023-07-29T12:38:52;40;35;
77481;PMS5003;66582;43.004;-75.010;2023-07-29T12:41:18;32;31;
77481;PMS5003;66582;43.004;-75.010;2023-07-29T12:43:43;32;29;
77481;PMS5003;66582;43.004;-75.010;2023-07-29T12:46:09;35;32;
77481;PMS5003;66582;43.004;-75.010;2023-07-29T12:48:35;34;32;
77481;PMS5003;66582;43.004;-75.010;2023-07-29T12:51:01;36;34;
77481;PMS5003;66582;43.004;-75.010;2023-07-29T12:53:26;33;32;
77481;PMS5003;66582;43.004;-75.010;2023-07-29T12:55:52;35;33;
77481;PMS5003;66582;43.004;-75.010;2023-07-29T12:58:17;32;30;
77481;PMS5003;66582;43.004;-75.010;2023-07-29T13:00:42;30;30;
77481;PMS5003;66582;43.004;-75.010;2023-07-29T13:03:08;33;32;
77481;PMS5003;66582;43.004;-75.010;2023-07-29T13:05:33;35;32;
77481;PMS5003;66582;43.004;-75.010;2023-07-29T13:07:59;37;36;
77481;PMS5003;66582;43.004;-75.010;2023-07-29T13:10:24;37;36;
77481;PMS5003;66582;43.004;-75.010;2023-07-29T13:12:49;37;36;
77481;PMS5003;66582;43.004;-75.010;2023-07-29T13:15:14;33;33;
77481;PMS5003;66582;43.004;-75.010;2023-07-29T13:17:39;29;27;
77481;PMS5003;66582;43.004;-75.010;2023-07-29T13:20:06;32;31;
77481;PMS5003;66582;43.004;-75.010;2023-07-29T13:22:31;35;35;
77481;PMS5003;66582;43.004;-75.010;2023-07-29T13:24:57;33;33;
77481;PMS5003;66582;43.004;-75.010;2023-07-29T13:27:22;34;33;
77481;PMS5003;66582;43.004;-75.010;2023-07-29T13:29:47;34;33;
77481;PMS5003;66582;43.004;-75.010;2023-07-29T13:32:12;35;33;
77481;PMS5003;66582;43.004;-75.010;2023-07-29T13:34:37;30;28;
77481;PMS5003;66582;43.004;-75.010;2023-07-29T13:37:03;34;32;
77481;PMS5003;66582;43.004;-75.010;2023-07-29T13:39:29;30;29;
77481;PMS5003;66582;43.004;-75.010;2023-07-29T13:41:54;30;29;
77481;PMS5003;66582;43.004;-75.010;2023-07-29T13:44:19;33;31;
77481;PMS5003;66582;43.004;-75.010;2023-07-29T13:46:45;29;28;
77481;PMS5003;66582;43.004;-75.010;2023-07-29T13:49:10;31;30;
77481;PMS5003;66582;43.004;-75.010;2023-07-29T13:51:35;28;27;
77481;PMS5003;66582;43.004;-75.010;2023-07-29T13:54:01;32;32;
77481;PMS5003;66582;43.004;-75.010;2023-07-29T13:56:26;32;31;
77481;PMS5003;66582;43.004;-75.010;2023-07-29T13:58:51;34;31;
77481;PMS5003;66582;43.004;-75.010;2023-07-29T14:01:17;29;27;
77481;PMS5003;66582;43.004;-75.010;2023-07-29T14:03:43;31;31;
77481;PMS5003;66582;43.004;-75.010;2023-07-29T14:06:08;29;27;
77481;PMS5003;66582;43.004;-75.010;2023-07-29T14:08:33;35;34;
77481;PMS5003;66582;43.004;-75.010;2023-07-29T14:10:58;27;27;
77481;PMS5003;66582;43.004;-75.010;2023-07-29T14:13:24;30;30;
77481;PMS5003;66582;43.004;-75.010;2023-07-29T14:15:49;34;30;
77481;PMS5003;66582;43.004;-75.010;2023-07-29T14:18:14;28;26;
77481;PMS5003;66582;43.004;-75.010;2023-07-29T14:20:40;31;31;
77481;PMS5003;66582;43.004;-75.010;2023-07-29T14:23:05;32;31;
77481;PMS5003;66582;43.004;-75.010;2023-07-29T14:25:31;31;28;
77481;PMS5003;66582;43.004;-75.010;2023-07-29T14:27:56;32;31;
77481;PMS5003;66582;43.004;-75.010;2023-07-29T14:30:22;33;31;
77481;PMS5003;66582;43.004;-75.010;2023-07-29T14:32:48;33;31;
77481;PMS5003;66582;43.004;-75.010;2023-07-29T14:35:13;26;26;
77481;PMS5003;66582;43.004;-75.010;2023-07-29T14:37:38;28;28;
77481;PMS5003;66582;43.004;-75.010;2023-07-29T14:40:04;28;25;
77481;PMS5003;66582;43.004;-75.010;2023-07-29T14:42:29;27;27;
77481;PMS5003;66582;43.004;-75.010;2023-07-29T14:44:55;29;28;
77481;PMS5003;66582;43.004;-75.010;2023-07-29T14:47:20;31;31;
77481;PMS5003;66582;43.004;-75.010;2023-07-29T14:49:45;34;32;
77481;PMS5003;66582;43.004;-75.010;2023-07-29T14:52:11;33;29;
77481;PMS5003;66582;43.004;-75.010;2023-07-29T14:54:36;30;30;
77481;PMS5003;66582;43.004;-75.010;2023-07-29T14:57:01;27;27;
77481;PMS5003;66582;43.004;-75.010;2023-07-29T14:59:28;31;30;
77481;PMS5003;66582;43.004;-75.010;2023-07-29T15:01:52;27;27;
77481;PMS5003;66582;43.004;-75.010;2023-07-29T15:04:18;30;28;
77481;PMS5003;66582;43.004;-75.010;2023-07-29T15:06:43;28;27;
77481;PMS5003;66582;43.004;-75.010;2023-07-29T15:09:08;35;33;
77481;PMS5003;66582;43.004;-75.010;2023-07-29T15:11:34;27;27;
77481;PMS5003;66582;43.004;-75.010;2023-07-29T15:14:00;29;29;
77481;PMS5003;66582;43.004;-75.010;2023-07-29T15:16:25;31;28;
77481;PMS5003;66582;43.004;-75.010;2023-07-29T15:18:50;33;32;
77481;PMS5003;66582;43.004;-75.010;2023-07-29T15:21:16;28;27;
77481;PMS5003;66582;43.004;-75.010;2023-07-29T15:23:42;31;28;
77481;PMS5003;66582;43.004;-75.010;2023-07-29T15:26:07;27;27;
77481;PMS5003;66582;43.004;-75.010;2023-07-29T15:28:33;27;27;
77481;PMS5003;66582;43.004;-75.010;2023-07-29T15:30:58;26;25;
77481;PMS5003;66582;43.004;-75.010;2023-07-29T15:33:24;28;28;
77481;PMS5003;66582;43.004;-75.010;2023-07-29T15:35:49;29;29;
77481;PMS5003;66582;43.004;-75.010;2023-07-29T15:38:15;31;27;
77481;PMS5003;66582;43.004;-75.010;2023-07-29T15:40:41;32;27;